createdAt,value
2022-11-10T00:03:54.115Z,11.22
2022-11-10T00:09:21.585Z,11.23
2022-11-10T00:14:57.697Z,11.20
2022-11-10T00:20:21.161Z,11.14
2022-11-10T00:25:47.714Z,11.27
2022-11-10T00:31:12.362Z,11.32
2022-11-10T00:36:37.154Z,11.25
2022-11-10T00:42:03.387Z,11.32
2022-11-10T00:47:27.034Z,11.23
2022-11-10T00:52:50.447Z,11.26
2022-11-10T00:58:16.344Z,11.21
2022-11-10T01:03:40.590Z,11.15
2022-11-10T01:09:03.826Z,11.10
2022-11-10T01:14:30.071Z,11.02
2022-11-10T01:19:53.697Z,11.06
2022-11-10T01:25:17.710Z,11.08
2022-11-10T01:30:44.296Z,11.11
2022-11-10T01:36:09.900Z,11.10
2022-11-10T01:41:33.390Z,11.03
2022-11-10T01:47:01.178Z,11.16
2022-11-10T01:52:25.302Z,10.94
2022-11-10T01:57:49.257Z,11.00
2022-11-10T02:03:19.834Z,10.89
2022-11-10T02:08:48.122Z,10.91
2022-11-10T02:14:12.546Z,10.86
2022-11-10T02:19:43.880Z,10.91
2022-11-10T02:25:12.040Z,10.93
2022-11-10T02:30:35.574Z,10.74
2022-11-10T02:35:59.421Z,10.73
2022-11-10T02:41:25.661Z,10.69
2022-11-10T02:46:49.961Z,10.61
2022-11-10T02:52:14.122Z,10.70
2022-11-10T02:57:41.991Z,10.56
2022-11-10T03:03:06.893Z,10.50
2022-11-10T03:08:30.194Z,10.37
2022-11-10T03:14:02.085Z,10.29
2022-11-10T03:19:26.251Z,10.35
2022-11-10T03:24:49.653Z,10.30
2022-11-10T03:30:16.698Z,10.28
2022-11-10T03:35:40.597Z,10.29
2022-11-10T03:41:18.726Z,10.20
2022-11-10T03:46:50.334Z,10.39
2022-11-10T03:52:15.081Z,10.20
2022-11-10T03:57:38.930Z,10.33
2022-11-10T04:03:05.660Z,10.15
2022-11-10T04:08:50.619Z,10.07
2022-11-10T04:14:35.336Z,10.01
2022-11-10T04:20:03.189Z,9.98
2022-11-10T04:25:29.564Z,9.97
2022-11-10T04:30:53.135Z,10.04
2022-11-10T04:36:20.754Z,10.03
2022-11-10T04:41:44.598Z,9.95
2022-11-10T04:47:11.924Z,10.14
2022-11-10T04:52:38.379Z,9.97
2022-11-10T04:58:01.811Z,10.17
2022-11-10T05:03:26.704Z,10.10
2022-11-10T05:08:53.803Z,10.24
2022-11-10T05:14:17.386Z,10.14
2022-11-10T05:19:41.557Z,10.21
2022-11-10T05:25:08.599Z,10.30
2022-11-10T05:30:32.153Z,10.32
2022-11-10T05:35:56.116Z,10.12
2022-11-10T05:41:22.594Z,10.19
2022-11-10T05:46:46.739Z,10.23
2022-11-10T05:52:11.146Z,10.31
2022-11-10T05:57:37.595Z,10.28
2022-11-10T06:03:03.166Z,10.33
2022-11-10T06:08:26.573Z,10.24
2022-11-10T06:13:52.692Z,10.37
2022-11-10T06:19:18.624Z,10.33
2022-11-10T06:24:43.341Z,10.33
2022-11-10T06:30:15.954Z,10.31
2022-11-10T06:35:41.060Z,10.35
2022-11-10T06:41:05.005Z,10.35
2022-11-10T06:46:31.241Z,10.39
2022-11-10T06:52:10.485Z,10.34
2022-11-10T06:57:44.701Z,10.35
2022-11-10T07:03:15.270Z,10.44
2022-11-10T07:08:39.071Z,10.53
2022-11-10T07:14:03.169Z,10.49
2022-11-10T07:19:32.507Z,10.52
2022-11-10T07:24:59.683Z,10.57
2022-11-10T07:30:23.177Z,10.56
2022-11-10T07:35:55.468Z,10.60
2022-11-10T07:41:19.533Z,10.65
2022-11-10T07:46:43.215Z,10.68
2022-11-10T07:52:11.946Z,10.69
2022-11-10T07:57:39.331Z,10.64
2022-11-10T08:03:07.368Z,10.72
2022-11-10T08:08:38.687Z,10.78
2022-11-10T08:14:02.151Z,10.85
2022-11-10T08:19:26.189Z,10.89
2022-11-10T08:24:54.577Z,11.05
2022-11-10T08:30:19.483Z,11.10
2022-11-10T08:35:48.253Z,11.19
2022-11-10T08:41:16.083Z,11.28
2022-11-10T08:46:39.996Z,11.27
2022-11-10T08:52:03.764Z,11.71
2022-11-10T08:57:31.699Z,11.69
2022-11-10T09:03:01.634Z,12.08
2022-11-10T09:08:34.015Z,12.12
2022-11-10T09:14:09.157Z,12.31
2022-11-10T09:19:40.157Z,12.71
2022-11-10T09:25:09.246Z,14.38
2022-11-10T09:30:35.665Z,13.04
2022-11-10T09:36:04.044Z,12.36
2022-11-10T09:41:30.157Z,12.46
2022-11-10T09:47:03.556Z,12.98
2022-11-10T09:52:30.285Z,12.96
2022-11-10T09:57:59.005Z,13.27
2022-11-10T10:03:34.972Z,13.82
2022-11-10T10:09:07.498Z,13.58
2022-11-10T10:14:43.318Z,13.91
2022-11-10T10:20:20.049Z,13.91
2022-11-10T10:25:46.397Z,14.34
2022-11-10T10:31:20.048Z,14.10
2022-11-10T10:36:47.237Z,14.11
2022-11-10T10:42:21.372Z,14.53
2022-11-10T10:47:47.221Z,14.58
2022-11-10T10:53:20.056Z,14.64
2022-11-10T10:58:56.017Z,15.25
2022-11-10T11:04:34.322Z,15.15
2022-11-10T11:10:41.614Z,15.11
2022-11-10T11:16:27.061Z,15.07
2022-11-10T11:22:11.877Z,14.87
2022-11-10T11:27:49.208Z,15.23
2022-11-10T11:33:22.548Z,15.18
2022-11-10T11:38:57.301Z,15.06
2022-11-10T11:44:45.589Z,15.36
2022-11-10T11:50:23.711Z,15.26
2022-11-10T11:56:03.092Z,15.60
2022-11-10T12:01:49.684Z,15.46
2022-11-10T12:07:44.077Z,16.03
2022-11-10T12:14:01.732Z,15.73
2022-11-10T12:19:39.281Z,15.53
2022-11-10T12:25:20.773Z,15.65
2022-11-10T12:30:46.210Z,15.42
2022-11-10T12:36:17.685Z,14.78
2022-11-10T12:41:49.721Z,14.76
2022-11-10T12:47:22.186Z,15.00
2022-11-10T12:52:54.976Z,14.69
2022-11-10T12:58:22.191Z,14.65
2022-11-10T13:03:59.951Z,14.51
2022-11-10T13:09:34.364Z,14.22
2022-11-10T13:14:59.001Z,13.92
2022-11-10T13:20:48.967Z,14.13
2022-11-10T13:26:43.383Z,14.01
2022-11-10T13:32:36.697Z,14.11
2022-11-10T13:38:02.485Z,14.28
2022-11-10T13:43:28.719Z,14.14
2022-11-10T13:49:25.464Z,14.19
2022-11-10T13:55:15.984Z,14.02
2022-11-10T14:00:41.308Z,14.06
2022-11-10T14:06:18.966Z,13.99
2022-11-10T14:11:50.275Z,14.05
2022-11-10T14:17:22.163Z,14.16
2022-11-10T14:22:51.181Z,14.02
2022-11-10T14:28:29.020Z,13.79
2022-11-10T14:33:57.670Z,13.76
2022-11-10T14:39:31.043Z,13.79
2022-11-10T14:45:09.605Z,13.79
2022-11-10T14:50:35.685Z,13.70
2022-11-10T14:56:07.466Z,13.58
2022-11-10T15:01:35.263Z,13.57
2022-11-10T15:07:00.660Z,13.43
2022-11-10T15:12:30.658Z,13.54
2022-11-10T15:17:54.955Z,13.32
2022-11-10T15:23:30.522Z,13.15
2022-11-10T15:28:59.236Z,13.15
2022-11-10T15:34:42.155Z,13.09
2022-11-10T15:40:39.802Z,12.87
2022-11-10T15:46:17.908Z,12.83
2022-11-10T15:51:43.553Z,12.67
2022-11-10T15:57:07.292Z,12.64
2022-11-10T16:02:34.837Z,12.63
2022-11-10T16:07:59.817Z,12.48
2022-11-10T16:13:28.880Z,12.35
2022-11-10T16:18:55.736Z,12.22
2022-11-10T16:24:20.581Z,12.09
2022-11-10T16:29:47.090Z,11.91
2022-11-10T16:35:18.082Z,11.84
2022-11-10T16:40:43.390Z,11.76
2022-11-10T16:46:16.880Z,11.89
2022-11-10T16:51:48.802Z,11.99
2022-11-10T16:57:15.804Z,11.75
2022-11-10T17:02:40.487Z,11.75
2022-11-10T17:08:07.288Z,11.81
2022-11-10T17:13:32.942Z,11.90
2022-11-10T17:18:59.299Z,11.78
2022-11-10T17:24:26.783Z,11.70
2022-11-10T17:30:01.558Z,11.60
2022-11-10T17:35:26.923Z,11.48
2022-11-10T17:40:54.272Z,11.45
2022-11-10T17:46:20.844Z,11.47
2022-11-10T17:51:45.986Z,11.31
2022-11-10T17:57:15.573Z,11.29
2022-11-10T18:02:39.377Z,11.22
2022-11-10T18:08:04.193Z,11.19
2022-11-10T18:13:30.943Z,11.01
2022-11-10T18:18:54.673Z,10.96
2022-11-10T18:24:19.311Z,11.02
2022-11-10T18:29:48.810Z,10.83
2022-11-10T18:35:12.809Z,10.85
2022-11-10T18:40:41.584Z,10.88
2022-11-10T18:46:08.340Z,10.80
2022-11-10T18:51:33.809Z,10.72
2022-11-10T18:56:58.900Z,10.77
2022-11-10T19:02:25.672Z,10.78
2022-11-10T19:07:49.960Z,10.71
2022-11-10T19:13:19.699Z,10.80
2022-11-10T19:18:46.854Z,10.81
2022-11-10T19:24:27.161Z,10.56
2022-11-10T19:29:53.911Z,10.72
2022-11-10T19:35:22.085Z,10.73
2022-11-10T19:40:48.225Z,10.74
2022-11-10T19:46:16.206Z,10.50
2022-11-10T19:51:43.997Z,10.53
2022-11-10T19:57:10.529Z,10.51
2022-11-10T20:02:45.170Z,10.49
2022-11-10T20:08:15.641Z,10.57
2022-11-10T20:13:39.982Z,10.61
2022-11-10T20:19:03.978Z,10.47
2022-11-10T20:24:31.048Z,10.39
2022-11-10T20:29:54.616Z,10.23
2022-11-10T20:35:18.216Z,9.99
2022-11-10T20:40:45.358Z,10.16
2022-11-10T20:46:16.130Z,10.32
2022-11-10T20:51:46.969Z,10.34
2022-11-10T20:57:13.484Z,10.15
2022-11-10T21:02:37.118Z,10.28
2022-11-10T21:08:00.911Z,10.32
2022-11-10T21:13:28.457Z,10.08
2022-11-10T21:18:51.789Z,9.55
2022-11-10T21:24:15.261Z,9.97
2022-11-10T21:29:42.446Z,9.99
2022-11-10T21:35:09.902Z,9.95
2022-11-10T21:40:34.524Z,9.65
2022-11-10T21:46:07.443Z,8.96
2022-11-10T21:51:32.802Z,8.93
2022-11-10T21:56:57.925Z,8.54
2022-11-10T22:02:24.411Z,8.89
2022-11-10T22:07:48.016Z,9.34
2022-11-10T22:13:30.484Z,9.52
2022-11-10T22:19:01.275Z,9.48
2022-11-10T22:24:27.494Z,9.60
2022-11-10T22:29:53.218Z,9.38
2022-11-10T22:35:33.077Z,9.42
2022-11-10T22:41:12.890Z,9.47
2022-11-10T22:46:38.646Z,9.55
2022-11-10T22:52:05.051Z,9.58
2022-11-10T22:57:28.538Z,9.61
2022-11-10T23:02:54.770Z,9.52
2022-11-10T23:08:21.269Z,9.41
2022-11-10T23:13:45.568Z,9.41
2022-11-10T23:19:10.256Z,9.36
2022-11-10T23:24:36.619Z,9.35
2022-11-10T23:30:01.597Z,9.28
2022-11-10T23:35:25.475Z,9.18
2022-11-10T23:40:51.934Z,8.97
2022-11-10T23:46:15.738Z,7.92
2022-11-10T23:51:39.117Z,8.61
2022-11-10T23:57:06.691Z,8.85
